Time;durP1;ratioP1;P1;durP2;ratioP2;P2;SDS_P1;SDS_P2;PMS_P1;PMS_P2;Temp;Humidity;BMP_temperature;BMP_pressure;BME280_temperature;BME280_humidity;BME280_pressure;Samples;Min_cycle;Max_cycle;Signal;HPM_P1;HPM_P2
2024/01/06 00:04:30;;;;;;;17.00;8.80;;;;;;;-0.76;82.29;99032.91;215930;1264;140242;-72
2024/01/06 00:09:33;;;;;;;24.70;10.90;;;;;;;-0.78;81.91;99034.20;216295;1264;139654;-71
2024/01/06 00:14:36;;;;;;;23.90;12.10;;;;;;;-0.80;82.26;99024.30;216280;1264;140535;-71
2024/01/06 00:19:38;;;;;;;19.90;10.10;;;;;;;-0.86;82.25;99027.75;216550;1267;141501;-71
2024/01/06 00:24:41;;;;;;;24.70;10.00;;;;;;;-0.91;82.22;99031.42;217051;1264;151209;-74
2024/01/06 00:29:44;;;;;;;19.80;9.30;;;;;;;-0.98;82.03;99036.92;216315;1266;141714;-71
2024/01/06 00:34:47;;;;;;;19.90;10.10;;;;;;;-1.08;82.46;99028.23;216351;1267;141426;-72
2024/01/06 00:39:50;;;;;;;23.70;11.80;;;;;;;-1.17;81.98;99021.89;217381;1265;140552;-72
2024/01/06 00:44:54;;;;;;;17.80;8.40;;;;;;;-1.25;82.61;99030.17;216100;1265;140964;-70
2024/01/06 00:49:57;;;;;;;17.60;9.30;;;;;;;-1.28;82.49;99035.23;216069;1265;141769;-70
2024/01/06 00:55:00;;;;;;;15.00;9.40;;;;;;;-1.30;82.57;99046.39;217559;1266;140838;-72
2024/01/06 01:00:05;;;;;;;18.20;11.40;;;;;;;-1.33;82.90;99045.34;216850;1267;139839;-73
2024/01/06 01:05:09;;;;;;;24.80;11.00;;;;;;;-1.37;82.84;99039.58;217124;1264;141422;-70
2024/01/06 01:10:11;;;;;;;27.80;12.80;;;;;;;-1.43;82.81;99044.74;218047;1264;142332;-69
2024/01/06 01:15:15;;;;;;;16.80;11.30;;;;;;;-1.45;83.10;99051.65;216314;1263;140666;-67
2024/01/06 01:20:18;;;;;;;22.30;11.40;;;;;;;-1.47;83.33;99053.40;216333;1264;140931;-66
2024/01/06 01:25:24;;;;;;;22.90;13.00;;;;;;;-1.50;83.10;99059.45;216986;1264;142173;-67
2024/01/06 01:30:27;;;;;;;16.10;11.00;;;;;;;-1.50;83.66;99050.98;216126;1265;221274;-66
2024/01/06 01:35:30;;;;;;;30.10;16.30;;;;;;;-1.52;83.57;99049.24;216138;1264;140108;-66
2024/01/06 01:40:33;;;;;;;38.60;17.60;;;;;;;-1.55;83.70;99037.05;215949;1264;140032;-66
2024/01/06 01:45:38;;;;;;;25.70;14.70;;;;;;;-1.57;83.80;99032.02;215898;1267;141631;-68
2024/01/06 01:50:41;;;;;;;25.50;15.10;;;;;;;-1.59;83.66;99035.14;215734;1264;141139;-68
2024/01/06 01:55:44;;;;;;;24.80;14.90;;;;;;;-1.63;83.74;99032.22;217158;1264;140096;-68
2024/01/06 02:00:48;;;;;;;20.30;12.30;;;;;;;-1.66;83.87;99025.45;216026;1267;140413;-69
2024/01/06 02:05:50;;;;;;;27.10;16.40;;;;;;;-1.66;84.07;99028.65;215682;1264;141546;-67
2024/01/06 02:10:57;;;;;;;31.70;19.30;;;;;;;-1.67;84.29;99052.04;215818;1263;140371;-68
2024/01/06 02:16:00;;;;;;;24.90;17.00;;;;;;;-1.66;84.50;99049.36;216019;1264;141165;-67
2024/01/06 02:21:03;;;;;;;33.60;17.60;;;;;;;-1.67;84.62;99042.11;216385;1267;140411;-68
2024/01/06 02:26:06;;;;;;;22.90;12.80;;;;;;;-1.70;84.26;99045.59;218194;1267;140691;-68
2024/01/06 02:31:10;;;;;;;35.50;18.90;;;;;;;-1.73;84.58;99041.84;215918;1264;141151;-69
2024/01/06 02:36:14;;;;;;;35.50;18.40;;;;;;;-1.72;84.67;99034.81;216708;1264;140247;-68
2024/01/06 02:41:17;;;;;;;31.60;18.00;;;;;;;-1.73;84.81;99037.38;218856;1264;140547;-69
2024/01/06 02:46:20;;;;;;;39.60;20.90;;;;;;;-1.72;84.91;99046.15;216019;1267;141120;-68
2024/01/06 02:51:24;;;;;;;29.80;16.30;;;;;;;-1.68;84.97;99034.53;218978;1264;140133;-68
2024/01/06 02:56:29;;;;;;;32.80;15.60;;;;;;;-1.66;85.09;99033.13;217625;1265;140340;-69
2024/01/06 03:01:32;;;;;;;23.50;13.30;;;;;;;-1.63;85.01;99036.27;215795;1263;140057;-67
2024/01/06 03:06:35;;;;;;;26.90;14.80;;;;;;;-1.63;85.04;99045.77;217965;1265;140456;-68
2024/01/06 03:11:39;;;;;;;27.20;17.40;;;;;;;-1.62;85.19;99045.73;217815;1264;141102;-67
2024/01/06 03:16:43;;;;;;;31.90;17.90;;;;;;;-1.61;85.17;99040.17;215955;1265;140221;-68
2024/01/06 03:21:45;;;;;;;32.80;14.10;;;;;;;-1.62;85.03;99030.88;216298;1267;141201;-69
2024/01/06 03:26:49;;;;;;;29.70;16.20;;;;;;;-1.62;85.54;99030.00;216173;1265;141783;-69
2024/01/06 03:31:52;;;;;;;25.80;15.70;;;;;;;-1.62;85.71;99039.40;215974;1265;142237;-68
2024/01/06 03:36:55;;;;;;;27.90;17.10;;;;;;;-1.62;85.73;99042.80;215914;1264;141166;-67
2024/01/06 03:41:59;;;;;;;24.90;13.60;;;;;;;-1.65;85.71;99035.80;216785;1267;141481;-66
2024/01/06 03:47:08;;;;;;;27.90;16.20;;;;;;;-1.67;86.06;99034.92;217005;1265;140275;-67
2024/01/06 03:52:13;;;;;;;27.30;16.20;;;;;;;-1.67;86.05;99033.27;218168;1264;140691;-70
2024/01/06 03:57:17;;;;;;;36.60;18.10;;;;;;;-1.70;86.02;99032.29;215717;1267;140816;-70
2024/01/06 04:02:22;;;;;;;40.40;16.70;;;;;;;-1.73;86.01;99035.40;216105;1264;140633;-69
2024/01/06 04:07:25;;;;;;;31.30;15.50;;;;;;;-1.73;86.27;99034.20;215793;1267;140895;-69
2024/01/06 04:12:28;;;;;;;54.20;25.70;;;;;;;-1.73;86.21;99031.55;215733;1266;140704;-72
2024/01/06 04:17:31;;;;;;;24.60;14.30;;;;;;;-1.74;86.31;99021.96;215770;1265;141096;-71
2024/01/06 04:22:34;;;;;;;34.90;17.60;;;;;;;-1.76;86.12;99018.90;215750;1265;140796;-72
2024/01/06 04:27:37;;;;;;;28.50;15.80;;;;;;;-1.77;86.45;99025.99;215829;1265;140588;-72
2024/01/06 04:32:41;;;;;;;37.30;16.30;;;;;;;-1.76;86.54;99020.11;215755;1263;140560;-66
2024/01/06 04:37:49;;;;;;;32.20;14.70;;;;;;;-1.75;86.47;99019.58;218869;1264;140639;-70
2024/01/06 04:42:51;;;;;;;23.50;14.70;;;;;;;-1.72;86.54;99023.68;219182;1264;140697;-71
2024/01/06 04:47:54;;;;;;;23.20;12.40;;;;;;;-1.70;86.62;99030.89;217623;1267;142562;-71
2024/01/06 04:52:57;;;;;;;20.60;11.30;;;;;;;-1.67;86.70;99021.56;215885;1267;142052;-70
2024/01/06 04:58:01;;;;;;;28.60;15.90;;;;;;;-1.65;86.62;99019.20;215815;1267;140152;-69
2024/01/06 05:03:04;;;;;;;23.00;13.50;;;;;;;-1.65;86.64;99025.37;215650;1267;142791;-69
2024/01/06 05:08:07;;;;;;;23.90;13.50;;;;;;;-1.66;86.70;99033.77;215856;1264;141910;-66
2024/01/06 05:13:10;;;;;;;17.90;11.90;;;;;;;-1.68;86.41;99031.23;215903;1267;140134;-67
2024/01/06 05:18:13;;;;;;;19.60;11.00;;;;;;;-1.67;86.73;99027.02;217116;1265;140512;-66
2024/01/06 05:23:17;;;;;;;16.50;9.50;;;;;;;-1.67;86.99;99021.77;217018;1265;141032;-66
2024/01/06 05:28:20;;;;;;;24.80;15.40;;;;;;;-1.66;87.00;99033.35;216384;1267;140045;-67
2024/01/06 05:33:23;;;;;;;23.20;12.10;;;;;;;-1.65;87.13;99048.05;216121;1265;141189;-66
2024/01/06 05:38:26;;;;;;;24.60;14.10;;;;;;;-1.64;86.96;99061.83;217200;1264;140425;-66
2024/01/06 05:43:29;;;;;;;22.40;12.90;;;;;;;-1.62;87.21;99073.27;215987;1265;140671;-67
2024/01/06 05:48:32;;;;;;;26.90;14.70;;;;;;;-1.60;87.34;99085.77;215831;1267;141966;-67
2024/01/06 05:53:36;;;;;;;21.40;11.90;;;;;;;-1.60;87.20;99080.16;216632;1264;140873;-67
2024/01/06 05:58:39;;;;;;;27.80;13.50;;;;;;;-1.62;87.12;99081.57;216276;1265;142020;-66
2024/01/06 06:03:43;;;;;;;23.30;12.70;;;;;;;-1.62;87.12;99088.44;216001;1265;139918;-68
2024/01/06 06:08:52;;;;;;;24.10;13.10;;;;;;;-1.63;87.21;99092.13;217335;1264;162288;-68
2024/01/06 06:13:57;;;;;;;23.70;13.60;;;;;;;-1.61;87.33;99106.42;215773;1267;142519;-68
2024/01/06 06:19:06;;;;;;;22.00;12.00;;;;;;;-1.60;87.43;99109.80;216032;1264;140831;-68
2024/01/06 06:24:09;;;;;;;25.10;14.30;;;;;;;-1.59;87.32;99112.46;217400;1264;140099;-71
2024/01/06 06:29:13;;;;;;;25.50;13.50;;;;;;;-1.56;87.59;99111.80;216341;1263;140416;-71
2024/01/06 06:34:16;;;;;;;24.60;13.20;;;;;;;-1.56;87.38;99116.80;215934;1265;140417;-71
2024/01/06 06:39:19;;;;;;;24.00;13.80;;;;;;;-1.55;87.38;99119.86;215937;1267;140572;-67
2024/01/06 06:44:23;;;;;;;26.70;14.80;;;;;;;-1.53;87.53;99121.90;215915;1264;142125;-69
2024/01/06 06:49:30;;;;;;;27.90;15.60;;;;;;;-1.53;87.69;99128.20;215971;1267;140674;-71
2024/01/06 06:54:33;;;;;;;26.80;15.10;;;;;;;-1.54;88.05;99137.46;216105;1265;140249;-68
2024/01/06 06:59:35;;;;;;;25.70;15.00;;;;;;;-1.53;87.91;99153.42;215787;1265;140623;-69
2024/01/06 07:04:39;;;;;;;26.20;14.00;;;;;;;-1.52;87.83;99162.75;215941;1267;139961;-68
2024/01/06 07:09:43;;;;;;;26.20;14.20;;;;;;;-1.54;87.69;99168.73;215874;1267;139949;-70
2024/01/06 07:14:46;;;;;;;26.10;14.20;;;;;;;-1.56;87.90;99170.27;215725;1265;140947;-69
2024/01/06 07:19:48;;;;;;;25.00;14.80;;;;;;;-1.57;87.98;99174.62;216260;1264;141214;-68
2024/01/06 07:24:53;;;;;;;26.40;13.70;;;;;;;-1.57;87.98;99168.55;217401;1267;139912;-74
2024/01/06 07:30:00;;;;;;;21.80;13.70;;;;;;;-1.57;87.88;99174.10;215823;1264;143974;-68
2024/01/06 07:35:04;;;;;;;20.00;14.10;;;;;;;-1.57;88.10;99168.84;215863;1267;140433;-67
2024/01/06 07:40:10;;;;;;;19.70;13.30;;;;;;;-1.55;88.05;99165.89;216798;1264;140273;-67
2024/01/06 07:45:13;;;;;;;26.80;14.30;;;;;;;-1.56;88.13;99170.70;216975;1267;140188;-70
2024/01/06 07:50:16;;;;;;;27.10;15.30;;;;;;;-1.57;87.93;99178.94;215927;1267;142899;-67
2024/01/06 07:55:19;;;;;;;24.30;13.80;;;;;;;-1.57;88.06;99188.21;216202;1267;140000;-67
2024/01/06 08:00:22;;;;;;;26.40;14.50;;;;;;;-1.60;87.72;99198.08;216660;1265;140246;-68
2024/01/06 08:05:25;;;;;;;23.00;12.00;;;;;;;-1.62;88.00;99203.36;217293;1267;141669;-69
2024/01/06 08:10:27;;;;;;;25.80;13.70;;;;;;;-1.66;88.02;99205.75;216189;1265;140612;-66
2024/01/06 08:15:32;;;;;;;26.80;15.70;;;;;;;-1.67;88.04;99210.72;217998;1264;140778;-67
2024/01/06 08:20:35;;;;;;;23.10;14.10;;;;;;;-1.65;88.05;99217.80;218566;1265;141651;-68
2024/01/06 08:25:38;;;;;;;20.10;12.00;;;;;;;-1.64;88.21;99222.47;217454;1264;140664;-66
2024/01/06 08:30:41;;;;;;;22.60;13.30;;;;;;;-1.65;87.93;99230.61;219173;1264;141256;-68
2024/01/06 08:35:44;;;;;;;21.40;13.60;;;;;;;-1.66;87.95;99229.34;217532;1263;141783;-72
2024/01/06 08:40:47;;;;;;;23.40;11.60;;;;;;;-1.64;88.18;99232.89;215900;1268;141677;-70
2024/01/06 08:45:51;;;;;;;24.00;14.10;;;;;;;-1.60;88.31;99238.73;215868;1267;141756;-70
2024/01/06 08:50:55;;;;;;;26.90;14.90;;;;;;;-1.59;88.11;99245.95;215734;1265;141293;-70
2024/01/06 08:56:00;;;;;;;32.20;14.40;;;;;;;-1.60;88.22;99245.33;215599;1268;140268;-71
2024/01/06 09:01:04;;;;;;;28.00;15.30;;;;;;;-1.59;88.27;99248.23;216995;1267;140918;-71
2024/01/06 09:06:06;;;;;;;29.80;16.10;;;;;;;-1.59;88.39;99249.80;216638;1264;140082;-70
2024/01/06 09:11:08;;;;;;;22.10;13.40;;;;;;;-1.59;88.51;99249.63;215910;1266;140735;-72
2024/01/06 09:16:11;;;;;;;24.80;15.60;;;;;;;-1.57;88.50;99255.12;216054;1264;142305;-67
2024/01/06 09:21:15;;;;;;;22.00;13.80;;;;;;;-1.57;88.41;99259.42;216660;1266;140096;-68
2024/01/06 09:26:18;;;;;;;23.40;13.50;;;;;;;-1.59;88.40;99256.40;216155;1267;140564;-67
2024/01/06 09:31:20;;;;;;;25.40;13.80;;;;;;;-1.66;88.07;99269.55;216480;1266;140326;-68
2024/01/06 09:36:23;;;;;;;22.80;12.90;;;;;;;-1.72;88.16;99277.75;217285;1267;140296;-67
2024/01/06 09:41:26;;;;;;;20.30;12.70;;;;;;;-1.74;88.26;99282.56;216086;1267;140277;-68
2024/01/06 09:46:29;;;;;;;22.30;13.80;;;;;;;-1.76;88.24;99286.61;216361;1267;140244;-67
2024/01/06 09:51:37;;;;;;;21.40;14.00;;;;;;;-1.78;88.21;99290.96;216231;1268;140205;-66
2024/01/06 09:56:47;;;;;;;22.10;12.00;;;;;;;-1.79;88.39;99300.69;217233;1267;140336;-65
2024/01/06 10:01:50;;;;;;;22.00;12.30;;;;;;;-1.79;88.58;99302.23;216397;1267;141395;-67
2024/01/06 10:06:53;;;;;;;19.60;12.20;;;;;;;-1.76;88.59;99303.33;216807;1267;140188;-67
2024/01/06 10:11:58;;;;;;;22.60;14.30;;;;;;;-1.75;88.48;99314.53;216594;1267;141243;-70
2024/01/06 10:17:01;;;;;;;22.60;13.00;;;;;;;-1.73;88.79;99308.39;216023;1267;140772;-71
2024/01/06 10:22:04;;;;;;;22.30;13.40;;;;;;;-1.73;88.50;99315.32;216206;1268;140144;-70
2024/01/06 10:27:08;;;;;;;19.50;13.90;;;;;;;-1.71;88.78;99313.06;216182;1267;142257;-67
2024/01/06 10:32:12;;;;;;;17.70;13.40;;;;;;;-1.71;88.83;99307.44;215888;1265;241552;-68
2024/01/06 10:37:17;;;;;;;20.50;11.70;;;;;;;-1.70;88.52;99308.19;218413;1267;141333;-71
2024/01/06 10:42:20;;;;;;;24.40;14.10;;;;;;;-1.69;88.43;99311.46;216310;1267;141168;-73
2024/01/06 10:47:26;;;;;;;28.70;15.70;;;;;;;-1.70;88.69;99313.13;216138;1268;139739;-73
2024/01/06 10:52:30;;;;;;;25.80;12.50;;;;;;;-1.72;88.78;99302.35;216263;1268;142047;-73
2024/01/06 10:57:34;;;;;;;28.60;14.50;;;;;;;-1.71;88.70;99301.36;215732;1268;140519;-69
2024/01/06 11:02:39;;;;;;;28.90;14.10;;;;;;;-1.68;88.64;99302.35;217292;1267;141988;-68
2024/01/06 11:07:43;;;;;;;29.50;17.80;;;;;;;-1.65;88.56;99298.72;216465;1269;139954;-72
2024/01/06 11:13:10;;;;;;;24.90;15.10;;;;;;;-1.62;88.66;99297.11;216036;1267;142214;-71
2024/01/06 11:18:34;;;;;;;23.90;12.80;;;;;;;-1.63;88.60;99304.39;215608;1264;140017;-71
2024/01/06 11:23:38;;;;;;;27.70;14.40;;;;;;;-1.67;88.57;99304.80;216032;1267;140433;-67
2024/01/06 11:28:46;;;;;;;25.00;15.00;;;;;;;-1.66;88.53;99301.59;215930;1267;139957;-68
2024/01/06 11:33:51;;;;;;;28.10;17.70;;;;;;;-1.68;88.53;99305.64;215821;1263;140505;-68
2024/01/06 11:38:54;;;;;;;23.50;12.40;;;;;;;-1.69;88.42;99303.63;217172;1267;140472;-68
2024/01/06 11:43:57;;;;;;;24.50;13.00;;;;;;;-1.66;88.44;99302.80;215975;1264;140059;-66
2024/01/06 11:49:00;;;;;;;29.40;14.50;;;;;;;-1.65;88.48;99308.21;216397;1264;140848;-69
2024/01/06 11:54:04;;;;;;;28.00;17.60;;;;;;;-1.69;88.14;99313.71;216588;1267;141692;-71
2024/01/06 11:59:07;;;;;;;21.40;13.60;;;;;;;-1.74;88.14;99316.55;217617;1267;141355;-70
2024/01/06 12:04:14;;;;;;;23.50;13.60;;;;;;;-1.76;88.33;99324.00;215749;1265;140396;-71
2024/01/06 12:09:24;;;;;;;23.80;14.80;;;;;;;-1.77;88.32;99326.45;215740;1267;141016;-71
2024/01/06 12:14:27;;;;;;;20.50;12.00;;;;;;;-1.83;88.15;99330.42;215822;1264;140216;-70
2024/01/06 12:19:31;;;;;;;25.00;15.40;;;;;;;-1.89;88.19;99325.16;215750;1267;141250;-70
2024/01/06 12:24:40;;;;;;;21.10;13.50;;;;;;;-1.91;88.44;99330.23;215932;1269;140838;-71
2024/01/06 12:29:43;;;;;;;19.70;12.70;;;;;;;-1.93;88.49;99329.10;215931;1264;139892;-67
2024/01/06 12:34:46;;;;;;;22.20;11.10;;;;;;;-1.95;88.56;99331.06;216428;1264;140150;-67
2024/01/06 12:39:51;;;;;;;23.10;12.40;;;;;;;-1.97;88.52;99333.70;218886;1264;140742;-71
2024/01/06 12:44:55;;;;;;;21.50;14.30;;;;;;;-2.01;88.28;99348.33;216871;1268;141556;-70
2024/01/06 12:49:59;;;;;;;23.40;12.60;;;;;;;-2.01;88.47;99349.98;215881;1269;140653;-69
2024/01/06 12:55:07;;;;;;;21.80;12.20;;;;;;;-2.00;88.63;99354.92;216879;1264;140668;-70
2024/01/06 13:00:11;;;;;;;24.00;12.60;;;;;;;-2.00;88.51;99357.14;215792;1263;141328;-68
2024/01/06 13:05:15;;;;;;;23.30;13.70;;;;;;;-2.03;88.58;99365.14;215736;1264;141886;-69
2024/01/06 13:10:18;;;;;;;19.50;13.30;;;;;;;-2.04;88.54;99369.21;215915;1264;141880;-70
2024/01/06 13:15:22;;;;;;;20.10;12.40;;;;;;;-2.05;88.59;99365.63;215701;1264;140442;-71
2024/01/06 13:20:25;;;;;;;24.60;16.00;;;;;;;-2.07;88.75;99371.80;216121;1265;141150;-72
2024/01/06 13:25:28;;;;;;;20.70;13.00;;;;;;;-2.08;88.69;99378.48;216403;1266;140441;-72
2024/01/06 13:30:32;;;;;;;23.20;11.70;;;;;;;-2.14;88.55;99385.41;215811;1268;140135;-70
2024/01/06 13:35:36;;;;;;;17.40;11.50;;;;;;;-2.15;88.60;99385.75;215752;1264;140345;-70
2024/01/06 13:40:39;;;;;;;17.10;11.20;;;;;;;-2.18;88.62;99388.48;215907;1267;141152;-71
2024/01/06 13:45:44;;;;;;;20.30;12.60;;;;;;;-2.20;88.85;99382.96;215621;1267;141012;-71
2024/01/06 13:50:47;;;;;;;25.20;11.90;;;;;;;-2.21;88.69;99387.95;215691;1265;140956;-71
2024/01/06 13:55:50;;;;;;;15.40;10.60;;;;;;;-2.24;88.66;99396.05;215953;1269;140208;-72
2024/01/06 14:00:54;;;;;;;16.90;10.40;;;;;;;-2.27;88.72;99399.95;215818;1267;140743;-70
2024/01/06 14:05:58;;;;;;;16.50;10.60;;;;;;;-2.34;88.72;99404.27;215704;1264;141074;-70
2024/01/06 14:11:00;;;;;;;18.90;10.70;;;;;;;-2.36;88.65;99408.52;215828;1268;140490;-70
2024/01/06 14:16:04;;;;;;;22.20;11.50;;;;;;;-2.37;88.83;99418.00;215907;1264;141335;-70
2024/01/06 14:21:09;;;;;;;16.80;10.70;;;;;;;-2.37;88.90;99426.81;215777;1264;140701;-71
2024/01/06 14:26:11;;;;;;;25.30;13.00;;;;;;;-2.36;89.00;99432.00;216067;1267;141353;-70
2024/01/06 14:31:19;;;;;;;18.60;10.40;;;;;;;-2.39;89.05;99437.61;215865;1264;140552;-70
2024/01/06 14:36:21;;;;;;;17.50;9.70;;;;;;;-2.40;89.02;99441.96;215942;1265;140594;-70
2024/01/06 14:41:24;;;;;;;14.50;9.60;;;;;;;-2.44;88.96;99447.25;215854;1267;141626;-70
2024/01/06 14:46:29;;;;;;;21.30;12.30;;;;;;;-2.45;88.98;99447.03;215777;1267;141643;-70
2024/01/06 14:51:32;;;;;;;15.10;7.70;;;;;;;-2.48;89.17;99448.14;215577;1268;140864;-70
2024/01/06 14:56:41;;;;;;;16.40;9.40;;;;;;;-2.50;89.20;99456.71;216462;1267;141122;-72
2024/01/06 15:01:44;;;;;;;14.40;10.40;;;;;;;-2.49;89.18;99467.83;216346;1264;140545;-69
2024/01/06 15:06:48;;;;;;;18.00;10.80;;;;;;;-2.49;89.36;99474.56;215934;1267;139976;-70
2024/01/06 15:11:50;;;;;;;18.50;11.00;;;;;;;-2.49;89.29;99480.42;215908;1267;140568;-68
2024/01/06 15:16:53;;;;;;;15.70;9.80;;;;;;;-2.50;89.26;99485.41;215728;1267;141211;-69
2024/01/06 15:21:56;;;;;;;16.90;10.40;;;;;;;-2.49;89.35;99481.84;215799;1264;139899;-69
2024/01/06 15:27:00;;;;;;;17.20;9.90;;;;;;;-2.46;89.48;99485.17;215571;1265;141840;-69
2024/01/06 15:32:02;;;;;;;17.90;10.20;;;;;;;-2.45;89.31;99491.37;215913;1263;141673;-69
2024/01/06 15:37:05;;;;;;;20.40;9.40;;;;;;;-2.46;89.26;99492.70;215854;1264;140653;-68
2024/01/06 15:42:08;;;;;;;15.30;11.60;;;;;;;-2.50;89.09;99492.05;215480;1267;140216;-69
2024/01/06 15:47:12;;;;;;;18.00;10.50;;;;;;;-2.53;89.11;99497.90;216149;1264;141165;-67
2024/01/06 15:52:17;;;;;;;12.30;7.00;;;;;;;-2.55;89.05;99500.59;215790;1264;141033;-69
2024/01/06 15:57:20;;;;;;;18.30;9.20;;;;;;;-2.59;88.85;99497.83;215803;1267;140301;-69
2024/01/06 16:02:23;;;;;;;15.90;10.20;;;;;;;-2.60;89.08;99499.58;215793;1264;140077;-69
2024/01/06 16:07:26;;;;;;;11.50;7.40;;;;;;;-2.59;88.69;99499.92;215706;1264;140161;-69
2024/01/06 16:12:33;;;;;;;12.70;7.50;;;;;;;-2.62;88.38;99504.27;216101;1267;140764;-69
2024/01/06 16:17:36;;;;;;;9.20;6.90;;;;;;;-2.65;88.28;99514.78;215925;1267;140377;-68
2024/01/06 16:22:39;;;;;;;12.30;6.40;;;;;;;-2.67;88.26;99516.41;215720;1265;140002;-70
2024/01/06 16:27:42;;;;;;;12.50;7.40;;;;;;;-2.68;88.16;99518.77;215652;1267;142248;-69
2024/01/06 16:32:47;;;;;;;15.60;8.40;;;;;;;-2.68;88.01;99528.17;215600;1264;141487;-69
2024/01/06 16:37:51;;;;;;;17.50;7.20;;;;;;;-2.70;87.99;99536.05;215898;1267;141134;-69
2024/01/06 16:42:54;;;;;;;21.60;10.00;;;;;;;-2.72;87.73;99537.93;216783;1264;141257;-69
2024/01/06 16:47:57;;;;;;;15.50;7.40;;;;;;;-2.71;87.75;99545.20;217711;1267;146036;-69
2024/01/06 16:53:01;;;;;;;15.60;8.10;;;;;;;-2.72;87.68;99550.62;215592;1264;140315;-68
2024/01/06 16:58:03;;;;;;;15.80;8.60;;;;;;;-2.69;87.59;99555.27;216738;1264;141150;-68
2024/01/06 17:03:07;;;;;;;13.90;7.40;;;;;;;-2.72;87.47;99563.20;215716;1267;143900;-69
2024/01/06 17:08:11;;;;;;;13.30;8.10;;;;;;;-2.75;87.38;99566.48;215802;1264;141093;-69
2024/01/06 17:13:13;;;;;;;18.10;9.10;;;;;;;-2.79;87.33;99569.28;215868;1267;140268;-68
2024/01/06 17:18:17;;;;;;;16.80;8.40;;;;;;;-2.79;87.38;99571.05;216180;1267;140185;-71
2024/01/06 17:23:21;;;;;;;13.60;7.40;;;;;;;-2.81;87.33;99571.75;215852;1264;140322;-68
2024/01/06 17:28:24;;;;;;;15.20;7.10;;;;;;;-2.82;87.06;99578.30;215832;1267;140097;-67
2024/01/06 17:33:27;;;;;;;18.60;10.00;;;;;;;-2.83;86.92;99579.48;216806;1264;141123;-69
2024/01/06 17:38:29;;;;;;;16.90;7.40;;;;;;;-2.84;86.78;99587.05;216140;1263;140718;-69
2024/01/06 17:43:33;;;;;;;19.10;7.60;;;;;;;-2.83;86.61;99596.80;216498;1264;140232;-69
2024/01/06 17:48:36;;;;;;;12.20;7.10;;;;;;;-2.81;86.43;99600.67;216137;1267;140701;-67
2024/01/06 17:53:40;;;;;;;14.70;7.90;;;;;;;-2.80;86.31;99604.36;216492;1267;140068;-68
2024/01/06 17:58:44;;;;;;;12.40;7.10;;;;;;;-2.77;86.16;99604.55;216711;1264;140800;-69
2024/01/06 18:03:46;;;;;;;12.20;7.70;;;;;;;-2.76;85.97;99605.14;216065;1264;142200;-68
2024/01/06 18:08:51;;;;;;;17.80;7.90;;;;;;;-2.77;85.82;99608.02;216018;1264;140874;-67
2024/01/06 18:13:53;;;;;;;13.40;7.00;;;;;;;-2.77;85.72;99613.42;217529;1264;139912;-68
2024/01/06 18:18:56;;;;;;;7.10;5.60;;;;;;;-2.76;85.45;99615.15;216917;1263;140569;-67
2024/01/06 18:24:07;;;;;;;10.80;6.20;;;;;;;-2.79;84.98;99615.25;217134;1264;139885;-68
2024/01/06 18:29:12;;;;;;;10.00;5.40;;;;;;;-2.81;84.92;99621.48;217095;1264;140693;-68
2024/01/06 18:34:16;;;;;;;10.20;5.60;;;;;;;-2.79;84.87;99631.73;216379;1265;140841;-68
2024/01/06 18:39:18;;;;;;;10.30;5.80;;;;;;;-2.78;84.75;99634.64;216907;1264;139998;-68
2024/01/06 18:44:22;;;;;;;9.80;4.60;;;;;;;-2.78;84.44;99638.26;216123;1264;140445;-68
2024/01/06 18:49:24;;;;;;;11.80;4.50;;;;;;;-2.80;84.37;99639.61;217610;1267;140614;-68
2024/01/06 18:54:27;;;;;;;10.80;5.70;;;;;;;-2.80;84.25;99639.98;216901;1263;140650;-67
2024/01/06 18:59:37;;;;;;;7.10;4.70;;;;;;;-2.80;83.99;99644.15;215638;1268;140682;-68
2024/01/06 19:04:40;;;;;;;9.20;5.10;;;;;;;-2.83;83.77;99646.73;215970;1264;140750;-66
2024/01/06 19:09:42;;;;;;;6.80;5.20;;;;;;;-2.85;83.63;99651.11;216878;1264;160887;-66
2024/01/06 19:14:45;;;;;;;6.40;4.90;;;;;;;-2.87;83.44;99650.14;215526;1264;140480;-67
2024/01/06 19:19:48;;;;;;;8.30;5.90;;;;;;;-2.88;83.51;99647.81;216449;1264;141092;-68
2024/01/06 19:24:52;;;;;;;6.60;5.00;;;;;;;-2.90;83.27;99651.23;216433;1264;140008;-67
2024/01/06 19:29:55;;;;;;;13.10;5.30;;;;;;;-2.91;83.09;99649.07;216036;1265;140430;-67
2024/01/06 19:34:59;;;;;;;6.70;4.20;;;;;;;-2.91;83.06;99649.84;216071;1264;143077;-68
2024/01/06 19:40:03;;;;;;;9.70;6.00;;;;;;;-2.94;82.85;99652.00;216225;1262;139859;-68
2024/01/06 19:45:06;;;;;;;8.10;5.40;;;;;;;-2.99;82.67;99655.98;215951;1264;140763;-67
2024/01/06 19:50:08;;;;;;;8.10;5.00;;;;;;;-2.99;82.66;99653.52;216461;1263;140212;-67
2024/01/06 19:55:11;;;;;;;10.60;4.90;;;;;;;-2.99;82.75;99661.21;216445;1264;142058;-68
2024/01/06 20:00:16;;;;;;;7.20;5.60;;;;;;;-3.00;82.49;99667.23;216183;1266;140314;-68
2024/01/06 20:05:19;;;;;;;12.10;6.30;;;;;;;-3.06;82.45;99666.05;217487;1264;140781;-67
2024/01/06 20:10:22;;;;;;;10.80;5.30;;;;;;;-3.07;82.61;99665.99;216207;1267;140806;-67
2024/01/06 20:15:26;;;;;;;9.30;5.30;;;;;;;-3.11;82.35;99665.50;215955;1263;140452;-68
2024/01/06 20:20:28;;;;;;;8.80;5.70;;;;;;;-3.15;82.49;99666.17;219036;1264;141553;-68
2024/01/06 20:25:32;;;;;;;9.40;6.30;;;;;;;-3.16;82.12;99671.83;219063;1264;140741;-67
2024/01/06 20:30:36;;;;;;;6.90;6.30;;;;;;;-3.14;82.18;99670.52;219072;1262;141383;-66
2024/01/06 20:35:39;;;;;;;7.30;5.20;;;;;;;-3.12;81.83;99668.93;219120;1264;140231;-68
2024/01/06 20:40:42;;;;;;;10.70;5.30;;;;;;;-3.11;81.61;99672.98;215983;1264;139717;-68
2024/01/06 20:45:48;;;;;;;15.00;6.50;;;;;;;-3.13;81.31;99671.82;217014;1264;140484;-66
2024/01/06 20:50:52;;;;;;;11.40;6.50;;;;;;;-3.16;81.20;99675.33;215931;1264;140109;-67
2024/01/06 20:55:55;;;;;;;10.00;6.30;;;;;;;-3.17;81.26;99672.89;215935;1267;140089;-69
2024/01/06 21:00:59;;;;;;;11.30;6.00;;;;;;;-3.18;81.22;99673.83;217783;1264;141119;-68
2024/01/06 21:06:01;;;;;;;9.50;5.60;;;;;;;-3.20;81.21;99678.15;216122;1266;140021;-68
2024/01/06 21:11:06;;;;;;;9.40;5.20;;;;;;;-3.20;80.82;99675.44;215653;1267;143127;-71
2024/01/06 21:16:09;;;;;;;11.50;5.60;;;;;;;-3.23;80.59;99677.59;215901;1264;141104;-66
2024/01/06 21:21:18;;;;;;;12.70;6.60;;;;;;;-3.24;80.57;99680.98;216696;1264;140141;-68
2024/01/06 21:26:21;;;;;;;7.00;5.30;;;;;;;-3.24;80.42;99687.09;216028;1267;141127;-67
2024/01/06 21:31:29;;;;;;;9.90;5.90;;;;;;;-3.25;80.36;99683.59;216175;1264;143829;-67
2024/01/06 21:36:33;;;;;;;8.00;6.10;;;;;;;-3.31;80.03;99687.60;216931;1267;140233;-65
2024/01/06 21:41:40;;;;;;;11.30;6.00;;;;;;;-3.32;80.01;99693.13;217615;1264;140565;-65
2024/01/06 21:46:43;;;;;;;12.80;7.50;;;;;;;-3.34;79.93;99693.76;217909;1264;139838;-70
2024/01/06 21:51:50;;;;;;;11.30;6.10;;;;;;;-3.36;79.61;99694.89;216032;1264;140485;-68
2024/01/06 21:56:53;;;;;;;;;;;;;;;-3.39;79.35;99698.27;216072;1264;140128;-67
2024/01/06 22:01:56;;;;;;;11.90;6.00;;;;;;;-3.42;79.49;99699.98;217355;1264;128250;-67
2024/01/06 22:07:02;;;;;;;14.90;7.20;;;;;;;-3.45;79.37;99707.02;216645;1267;139930;-67
2024/01/06 22:12:07;;;;;;;16.60;7.70;;;;;;;-3.47;79.27;99703.73;217140;1267;151510;-68
2024/01/06 22:17:10;;;;;;;10.80;6.30;;;;;;;-3.48;79.16;99707.66;217222;1264;140179;-67
2024/01/06 22:22:13;;;;;;;13.00;6.70;;;;;;;-3.48;79.37;99712.16;216198;1264;140243;-70
2024/01/06 22:27:16;;;;;;;9.50;5.60;;;;;;;-3.46;79.38;99713.57;216878;1264;140211;-68
2024/01/06 22:32:20;;;;;;;8.90;5.20;;;;;;;-3.47;79.18;99723.31;216462;1267;226395;-69
2024/01/06 22:37:23;;;;;;;10.20;5.70;;;;;;;-3.49;79.28;99729.80;216843;1265;143422;-70
2024/01/06 22:42:29;;;;;;;13.90;8.00;;;;;;;-3.54;79.21;99735.86;216935;1265;140616;-69
2024/01/06 22:47:32;;;;;;;11.30;5.90;;;;;;;-3.61;79.35;99740.54;216982;1264;140958;-70
2024/01/06 22:52:34;;;;;;;11.80;5.00;;;;;;;-3.64;79.42;99749.95;216777;1264;140533;-69